sensor_id;sensor_type;location;lat;lon;timestamp;P1;durP1;ratioP1;P2;durP2;ratioP2
69511;SDS011;56709;52.036;4.644;2023-03-01T00:01:47;35.75;;;20.77;;
69511;SDS011;56709;52.036;4.644;2023-03-01T00:04:13;40.10;;;21.02;;
69511;SDS011;56709;52.036;4.644;2023-03-01T00:06:38;39.78;;;20.67;;
69511;SDS011;56709;52.036;4.644;2023-03-01T00:09:04;37.63;;;21.77;;
69511;SDS011;56709;52.036;4.644;2023-03-01T00:11:30;36.78;;;20.92;;
69511;SDS011;56709;52.036;4.644;2023-03-01T00:13:57;39.40;;;21.92;;
69511;SDS011;56709;52.036;4.644;2023-03-01T00:18:54;37.88;;;22.15;;
69511;SDS011;56709;52.036;4.644;2023-03-01T00:21:20;45.07;;;23.30;;
69511;SDS011;56709;52.036;4.644;2023-03-01T00:23:47;44.28;;;23.90;;
69511;SDS011;56709;52.036;4.644;2023-03-01T00:26:14;44.05;;;23.58;;
69511;SDS011;56709;52.036;4.644;2023-03-01T00:28:40;42.20;;;22.75;;
69511;SDS011;56709;52.036;4.644;2023-03-01T00:31:07;42.97;;;23.27;;
69511;SDS011;56709;52.036;4.644;2023-03-01T00:33:33;41.42;;;23.08;;
69511;SDS011;56709;52.036;4.644;2023-03-01T00:35:59;44.15;;;22.83;;
69511;SDS011;56709;52.036;4.644;2023-03-01T00:38:24;42.83;;;23.30;;
69511;SDS011;56709;52.036;4.644;2023-03-01T00:40:50;43.33;;;23.80;;
69511;SDS011;56709;52.036;4.644;2023-03-01T00:43:15;43.42;;;23.42;;
69511;SDS011;56709;52.036;4.644;2023-03-01T00:45:40;40.67;;;22.95;;
69511;SDS011;56709;52.036;4.644;2023-03-01T00:48:06;46.10;;;23.95;;
69511;SDS011;56709;52.036;4.644;2023-03-01T00:50:31;41.35;;;23.08;;
69511;SDS011;56709;52.036;4.644;2023-03-01T00:52:57;44.65;;;22.77;;
69511;SDS011;56709;52.036;4.644;2023-03-01T00:55:22;47.60;;;22.95;;
69511;SDS011;56709;52.036;4.644;2023-03-01T00:57:49;48.40;;;24.02;;
69511;SDS011;56709;52.036;4.644;2023-03-01T01:00:14;47.78;;;22.70;;
69511;SDS011;56709;52.036;4.644;2023-03-01T01:02:40;43.08;;;23.45;;
69511;SDS011;56709;52.036;4.644;2023-03-01T01:05:05;46.38;;;25.20;;
69511;SDS011;56709;52.036;4.644;2023-03-01T01:07:31;43.30;;;23.13;;
69511;SDS011;56709;52.036;4.644;2023-03-01T01:09:57;47.00;;;23.70;;
69511;SDS011;56709;52.036;4.644;2023-03-01T01:12:22;49.67;;;24.02;;
69511;SDS011;56709;52.036;4.644;2023-03-01T01:14:47;49.40;;;24.25;;
69511;SDS011;56709;52.036;4.644;2023-03-01T01:17:13;53.20;;;24.45;;
69511;SDS011;56709;52.036;4.644;2023-03-01T01:19:38;48.75;;;24.05;;
69511;SDS011;56709;52.036;4.644;2023-03-01T01:22:04;48.90;;;23.35;;
69511;SDS011;56709;52.036;4.644;2023-03-01T01:24:29;46.95;;;23.27;;
69511;SDS011;56709;52.036;4.644;2023-03-01T01:26:55;49.90;;;25.95;;
69511;SDS011;56709;52.036;4.644;2023-03-01T01:29:20;48.38;;;24.00;;
69511;SDS011;56709;52.036;4.644;2023-03-01T01:31:46;50.55;;;25.33;;
69511;SDS011;56709;52.036;4.644;2023-03-01T01:34:15;49.88;;;25.55;;
69511;SDS011;56709;52.036;4.644;2023-03-01T01:36:43;51.90;;;26.55;;
69511;SDS011;56709;52.036;4.644;2023-03-01T01:39:08;46.88;;;25.10;;
69511;SDS011;56709;52.036;4.644;2023-03-01T01:41:38;56.28;;;24.92;;
69511;SDS011;56709;52.036;4.644;2023-03-01T01:46:36;60.47;;;27.75;;
69511;SDS011;56709;52.036;4.644;2023-03-01T01:49:04;57.53;;;26.38;;
69511;SDS011;56709;52.036;4.644;2023-03-01T01:51:53;58.42;;;25.77;;
69511;SDS011;56709;52.036;4.644;2023-03-01T01:54:31;53.47;;;27.05;;
69511;SDS011;56709;52.036;4.644;2023-03-01T01:59:32;54.00;;;25.77;;
69511;SDS011;56709;52.036;4.644;2023-03-01T02:01:59;57.22;;;26.98;;
69511;SDS011;56709;52.036;4.644;2023-03-01T02:04:27;55.92;;;27.15;;
69511;SDS011;56709;52.036;4.644;2023-03-01T02:07:13;55.17;;;26.42;;
69511;SDS011;56709;52.036;4.644;2023-03-01T02:09:41;57.40;;;27.95;;
69511;SDS011;56709;52.036;4.644;2023-03-01T02:12:08;58.33;;;27.05;;
69511;SDS011;56709;52.036;4.644;2023-03-01T02:14:33;55.85;;;26.63;;
69511;SDS011;56709;52.036;4.644;2023-03-01T02:16:59;62.00;;;27.75;;
69511;SDS011;56709;52.036;4.644;2023-03-01T02:19:35;62.17;;;30.00;;
69511;SDS011;56709;52.036;4.644;2023-03-01T02:22:15;61.33;;;28.70;;
69511;SDS011;56709;52.036;4.644;2023-03-01T02:27:28;61.03;;;28.27;;
69511;SDS011;56709;52.036;4.644;2023-03-01T02:30:25;62.47;;;28.63;;
69511;SDS011;56709;52.036;4.644;2023-03-01T02:32:52;71.03;;;30.23;;
69511;SDS011;56709;52.036;4.644;2023-03-01T02:35:19;63.58;;;28.30;;
69511;SDS011;56709;52.036;4.644;2023-03-01T02:37:45;72.88;;;29.48;;
69511;SDS011;56709;52.036;4.644;2023-03-01T02:40:13;65.85;;;30.05;;
69511;SDS011;56709;52.036;4.644;2023-03-01T02:42:54;65.18;;;28.08;;
69511;SDS011;56709;52.036;4.644;2023-03-01T02:45:22;66.22;;;30.92;;
69511;SDS011;56709;52.036;4.644;2023-03-01T02:47:48;66.75;;;29.83;;
69511;SDS011;56709;52.036;4.644;2023-03-01T02:50:45;72.10;;;30.63;;
69511;SDS011;56709;52.036;4.644;2023-03-01T02:53:21;68.78;;;30.27;;
69511;SDS011;56709;52.036;4.644;2023-03-01T02:55:50;71.07;;;31.40;;
69511;SDS011;56709;52.036;4.644;2023-03-01T02:58:16;64.47;;;31.08;;
69511;SDS011;56709;52.036;4.644;2023-03-01T03:00:42;74.53;;;30.52;;
69511;SDS011;56709;52.036;4.644;2023-03-01T03:03:13;65.13;;;29.30;;
69511;SDS011;56709;52.036;4.644;2023-03-01T03:05:39;69.15;;;30.73;;
69511;SDS011;56709;52.036;4.644;2023-03-01T03:08:04;70.28;;;31.40;;
69511;SDS011;56709;52.036;4.644;2023-03-01T03:10:33;79.35;;;31.80;;
69511;SDS011;56709;52.036;4.644;2023-03-01T03:13:02;80.13;;;31.73;;
69511;SDS011;56709;52.036;4.644;2023-03-01T03:15:29;65.18;;;30.55;;
69511;SDS011;56709;52.036;4.644;2023-03-01T03:17:55;71.80;;;31.58;;
69511;SDS011;56709;52.036;4.644;2023-03-01T03:20:22;76.63;;;30.93;;
69511;SDS011;56709;52.036;4.644;2023-03-01T03:22:51;74.72;;;30.65;;
69511;SDS011;56709;52.036;4.644;2023-03-01T03:27:43;78.45;;;30.02;;
69511;SDS011;56709;52.036;4.644;2023-03-01T03:30:10;74.23;;;30.33;;
69511;SDS011;56709;52.036;4.644;2023-03-01T03:32:42;78.18;;;32.60;;
69511;SDS011;56709;52.036;4.644;2023-03-01T03:35:17;75.97;;;33.50;;
69511;SDS011;56709;52.036;4.644;2023-03-01T03:37:46;77.13;;;31.05;;
69511;SDS011;56709;52.036;4.644;2023-03-01T03:40:28;75.75;;;32.53;;
69511;SDS011;56709;52.036;4.644;2023-03-01T03:43:04;86.18;;;33.72;;
69511;SDS011;56709;52.036;4.644;2023-03-01T03:45:31;72.18;;;31.05;;
69511;SDS011;56709;52.036;4.644;2023-03-01T03:47:58;77.43;;;32.78;;
69511;SDS011;56709;52.036;4.644;2023-03-01T03:50:25;75.65;;;31.92;;
69511;SDS011;56709;52.036;4.644;2023-03-01T03:52:50;78.38;;;32.45;;
69511;SDS011;56709;52.036;4.644;2023-03-01T03:55:16;74.57;;;33.10;;
69511;SDS011;56709;52.036;4.644;2023-03-01T03:57:44;79.45;;;31.70;;
69511;SDS011;56709;52.036;4.644;2023-03-01T04:00:16;79.53;;;31.77;;
69511;SDS011;56709;52.036;4.644;2023-03-01T04:02:43;88.20;;;33.70;;
69511;SDS011;56709;52.036;4.644;2023-03-01T04:05:09;94.07;;;33.22;;
69511;SDS011;56709;52.036;4.644;2023-03-01T04:07:36;105.60;;;35.00;;
69511;SDS011;56709;52.036;4.644;2023-03-01T04:10:03;83.73;;;34.47;;
69511;SDS011;56709;52.036;4.644;2023-03-01T04:12:29;75.15;;;32.47;;
69511;SDS011;56709;52.036;4.644;2023-03-01T04:14:55;91.03;;;37.20;;
69511;SDS011;56709;52.036;4.644;2023-03-01T04:17:20;87.75;;;36.13;;
69511;SDS011;56709;52.036;4.644;2023-03-01T04:19:45;96.07;;;35.47;;
69511;SDS011;56709;52.036;4.644;2023-03-01T04:22:13;100.43;;;36.25;;
69511;SDS011;56709;52.036;4.644;2023-03-01T04:24:43;146.02;;;38.95;;
69511;SDS011;56709;52.036;4.644;2023-03-01T04:27:11;83.05;;;34.90;;
69511;SDS011;56709;52.036;4.644;2023-03-01T04:29:36;94.00;;;36.55;;
69511;SDS011;56709;52.036;4.644;2023-03-01T04:32:02;82.72;;;33.75;;
69511;SDS011;56709;52.036;4.644;2023-03-01T04:34:28;101.15;;;37.35;;
69511;SDS011;56709;52.036;4.644;2023-03-01T04:36:54;90.22;;;36.90;;
69511;SDS011;56709;52.036;4.644;2023-03-01T04:39:19;89.88;;;35.47;;
69511;SDS011;56709;52.036;4.644;2023-03-01T04:41:44;81.10;;;35.97;;
69511;SDS011;56709;52.036;4.644;2023-03-01T04:44:10;85.22;;;35.72;;
69511;SDS011;56709;52.036;4.644;2023-03-01T04:46:35;84.28;;;35.13;;
69511;SDS011;56709;52.036;4.644;2023-03-01T04:49:02;89.97;;;35.60;;
69511;SDS011;56709;52.036;4.644;2023-03-01T04:51:27;95.78;;;35.00;;
69511;SDS011;56709;52.036;4.644;2023-03-01T04:53:53;91.25;;;33.95;;
69511;SDS011;56709;52.036;4.644;2023-03-01T04:56:18;81.68;;;35.60;;
69511;SDS011;56709;52.036;4.644;2023-03-01T04:58:44;79.03;;;33.90;;
69511;SDS011;56709;52.036;4.644;2023-03-01T05:01:10;75.32;;;33.00;;
69511;SDS011;56709;52.036;4.644;2023-03-01T05:03:40;79.72;;;32.80;;
69511;SDS011;56709;52.036;4.644;2023-03-01T05:06:07;82.97;;;33.30;;
69511;SDS011;56709;52.036;4.644;2023-03-01T05:08:32;78.05;;;33.95;;
69511;SDS011;56709;52.036;4.644;2023-03-01T05:10:59;67.32;;;30.25;;
69511;SDS011;56709;52.036;4.644;2023-03-01T05:13:24;67.07;;;30.00;;
69511;SDS011;56709;52.036;4.644;2023-03-01T05:15:54;70.35;;;31.33;;
69511;SDS011;56709;52.036;4.644;2023-03-01T05:18:20;74.45;;;30.30;;
69511;SDS011;56709;52.036;4.644;2023-03-01T05:20:50;79.03;;;30.65;;
69511;SDS011;56709;52.036;4.644;2023-03-01T05:23:21;70.13;;;31.02;;
69511;SDS011;56709;52.036;4.644;2023-03-01T05:25:47;63.70;;;29.20;;
69511;SDS011;56709;52.036;4.644;2023-03-01T05:28:12;71.22;;;30.40;;
69511;SDS011;56709;52.036;4.644;2023-03-01T05:30:39;73.20;;;30.13;;
69511;SDS011;56709;52.036;4.644;2023-03-01T05:33:04;62.65;;;29.55;;
69511;SDS011;56709;52.036;4.644;2023-03-01T05:35:35;65.28;;;28.65;;
69511;SDS011;56709;52.036;4.644;2023-03-01T05:38:01;74.03;;;32.60;;
69511;SDS011;56709;52.036;4.644;2023-03-01T05:40:26;73.20;;;30.75;;
69511;SDS011;56709;52.036;4.644;2023-03-01T05:42:53;69.93;;;29.98;;
69511;SDS011;56709;52.036;4.644;2023-03-01T05:45:20;66.55;;;30.35;;
69511;SDS011;56709;52.036;4.644;2023-03-01T05:47:47;68.18;;;29.38;;
69511;SDS011;56709;52.036;4.644;2023-03-01T05:50:14;73.43;;;30.73;;
69511;SDS011;56709;52.036;4.644;2023-03-01T05:52:48;68.88;;;30.48;;
69511;SDS011;56709;52.036;4.644;2023-03-01T05:57:44;64.95;;;26.20;;
69511;SDS011;56709;52.036;4.644;2023-03-01T06:00:10;65.10;;;26.70;;
69511;SDS011;56709;52.036;4.644;2023-03-01T06:02:36;61.17;;;27.52;;
69511;SDS011;56709;52.036;4.644;2023-03-01T06:05:03;58.75;;;26.67;;
69511;SDS011;56709;52.036;4.644;2023-03-01T06:07:29;63.38;;;26.40;;
69511;SDS011;56709;52.036;4.644;2023-03-01T06:09:55;59.78;;;27.25;;
69511;SDS011;56709;52.036;4.644;2023-03-01T06:12:20;59.53;;;26.40;;
69511;SDS011;56709;52.036;4.644;2023-03-01T06:14:46;58.45;;;25.98;;
69511;SDS011;56709;52.036;4.644;2023-03-01T06:17:12;53.70;;;25.03;;
69511;SDS011;56709;52.036;4.644;2023-03-01T06:19:37;58.03;;;24.75;;
69511;SDS011;56709;52.036;4.644;2023-03-01T06:22:03;53.33;;;25.52;;
69511;SDS011;56709;52.036;4.644;2023-03-01T06:24:28;53.70;;;24.15;;
69511;SDS011;56709;52.036;4.644;2023-03-01T06:26:54;54.08;;;25.00;;
69511;SDS011;56709;52.036;4.644;2023-03-01T06:29:19;60.03;;;25.50;;
69511;SDS011;56709;52.036;4.644;2023-03-01T06:31:45;53.67;;;25.52;;
69511;SDS011;56709;52.036;4.644;2023-03-01T06:34:10;58.63;;;25.92;;
69511;SDS011;56709;52.036;4.644;2023-03-01T06:36:38;60.35;;;25.25;;
69511;SDS011;56709;52.036;4.644;2023-03-01T06:39:04;61.13;;;25.35;;
69511;SDS011;56709;52.036;4.644;2023-03-01T06:41:30;65.60;;;28.55;;
69511;SDS011;56709;52.036;4.644;2023-03-01T06:43:56;66.68;;;28.02;;
69511;SDS011;56709;52.036;4.644;2023-03-01T06:46:21;73.95;;;30.65;;
69511;SDS011;56709;52.036;4.644;2023-03-01T06:48:47;62.72;;;29.20;;
69511;SDS011;56709;52.036;4.644;2023-03-01T06:51:12;66.70;;;28.35;;
69511;SDS011;56709;52.036;4.644;2023-03-01T06:53:38;61.03;;;29.58;;
69511;SDS011;56709;52.036;4.644;2023-03-01T06:56:03;72.25;;;32.72;;
69511;SDS011;56709;52.036;4.644;2023-03-01T06:58:29;66.78;;;32.20;;
69511;SDS011;56709;52.036;4.644;2023-03-01T07:00:54;71.60;;;32.25;;
69511;SDS011;56709;52.036;4.644;2023-03-01T07:03:19;73.00;;;31.05;;
69511;SDS011;56709;52.036;4.644;2023-03-01T07:05:45;67.68;;;29.77;;
69511;SDS011;56709;52.036;4.644;2023-03-01T07:08:10;72.45;;;29.65;;
69511;SDS011;56709;52.036;4.644;2023-03-01T07:10:36;74.47;;;31.10;;
69511;SDS011;56709;52.036;4.644;2023-03-01T07:13:01;71.75;;;32.35;;
69511;SDS011;56709;52.036;4.644;2023-03-01T07:15:27;79.65;;;33.65;;
69511;SDS011;56709;52.036;4.644;2023-03-01T07:17:52;76.28;;;32.45;;
69511;SDS011;56709;52.036;4.644;2023-03-01T07:20:18;78.20;;;33.25;;
69511;SDS011;56709;52.036;4.644;2023-03-01T07:22:47;70.05;;;32.95;;
69511;SDS011;56709;52.036;4.644;2023-03-01T07:25:13;83.57;;;31.67;;
69511;SDS011;56709;52.036;4.644;2023-03-01T07:27:38;80.75;;;32.58;;
69511;SDS011;56709;52.036;4.644;2023-03-01T07:30:04;71.65;;;32.95;;
69511;SDS011;56709;52.036;4.644;2023-03-01T07:32:30;74.40;;;30.33;;
69511;SDS011;56709;52.036;4.644;2023-03-01T07:34:55;67.85;;;29.70;;
69511;SDS011;56709;52.036;4.644;2023-03-01T07:37:21;75.35;;;31.25;;
69511;SDS011;56709;52.036;4.644;2023-03-01T07:39:46;78.50;;;31.75;;
69511;SDS011;56709;52.036;4.644;2023-03-01T07:42:12;79.50;;;31.92;;
69511;SDS011;56709;52.036;4.644;2023-03-01T07:44:37;80.88;;;30.92;;
69511;SDS011;56709;52.036;4.644;2023-03-01T07:47:03;87.63;;;33.13;;
69511;SDS011;56709;52.036;4.644;2023-03-01T07:49:29;92.70;;;33.05;;
69511;SDS011;56709;52.036;4.644;2023-03-01T07:51:54;85.38;;;33.65;;
69511;SDS011;56709;52.036;4.644;2023-03-01T07:54:20;87.40;;;34.38;;
69511;SDS011;56709;52.036;4.644;2023-03-01T07:56:45;89.40;;;34.58;;
69511;SDS011;56709;52.036;4.644;2023-03-01T07:59:11;87.55;;;33.33;;
69511;SDS011;56709;52.036;4.644;2023-03-01T08:01:36;89.72;;;34.95;;
69511;SDS011;56709;52.036;4.644;2023-03-01T08:04:02;86.85;;;34.13;;
69511;SDS011;56709;52.036;4.644;2023-03-01T08:06:27;87.88;;;34.83;;
69511;SDS011;56709;52.036;4.644;2023-03-01T08:08:53;82.47;;;32.45;;
69511;SDS011;56709;52.036;4.644;2023-03-01T08:11:21;87.53;;;34.22;;
69511;SDS011;56709;52.036;4.644;2023-03-01T08:13:47;90.60;;;33.55;;
69511;SDS011;56709;52.036;4.644;2023-03-01T08:16:14;89.30;;;33.33;;
69511;SDS011;56709;52.036;4.644;2023-03-01T08:18:40;83.45;;;32.83;;
69511;SDS011;56709;52.036;4.644;2023-03-01T08:21:06;90.30;;;34.42;;
69511;SDS011;56709;52.036;4.644;2023-03-01T08:23:36;80.03;;;31.92;;
69511;SDS011;56709;52.036;4.644;2023-03-01T08:26:03;72.47;;;28.05;;
69511;SDS011;56709;52.036;4.644;2023-03-01T08:28:37;75.00;;;29.80;;
69511;SDS011;56709;52.036;4.644;2023-03-01T08:31:03;66.75;;;29.17;;
69511;SDS011;56709;52.036;4.644;2023-03-01T08:33:37;55.80;;;26.80;;
69511;SDS011;56709;52.036;4.644;2023-03-01T08:36:04;61.70;;;26.63;;
69511;SDS011;56709;52.036;4.644;2023-03-01T08:38:31;47.70;;;24.83;;
69511;SDS011;56709;52.036;4.644;2023-03-01T08:40:59;53.40;;;26.05;;
69511;SDS011;56709;52.036;4.644;2023-03-01T08:43:25;56.60;;;25.42;;
69511;SDS011;56709;52.036;4.644;2023-03-01T08:45:53;55.58;;;24.70;;
69511;SDS011;56709;52.036;4.644;2023-03-01T08:48:19;51.85;;;23.33;;
69511;SDS011;56709;52.036;4.644;2023-03-01T08:50:44;43.60;;;20.63;;
69511;SDS011;56709;52.036;4.644;2023-03-01T08:53:10;46.00;;;21.92;;
69511;SDS011;56709;52.036;4.644;2023-03-01T08:55:35;41.95;;;21.13;;
69511;SDS011;56709;52.036;4.644;2023-03-01T08:58:00;36.15;;;19.05;;
69511;SDS011;56709;52.036;4.644;2023-03-01T09:00:26;36.13;;;19.42;;
69511;SDS011;56709;52.036;4.644;2023-03-01T09:02:51;29.60;;;16.77;;
69511;SDS011;56709;52.036;4.644;2023-03-01T09:05:16;25.73;;;13.73;;
69511;SDS011;56709;52.036;4.644;2023-03-01T09:07:42;25.25;;;13.98;;
69511;SDS011;56709;52.036;4.644;2023-03-01T09:10:08;24.33;;;14.05;;
69511;SDS011;56709;52.036;4.644;2023-03-01T09:12:34;32.63;;;13.10;;
69511;SDS011;56709;52.036;4.644;2023-03-01T09:14:59;20.33;;;12.45;;
69511;SDS011;56709;52.036;4.644;2023-03-01T09:17:24;24.58;;;11.93;;
69511;SDS011;56709;52.036;4.644;2023-03-01T09:19:50;23.20;;;10.45;;
69511;SDS011;56709;52.036;4.644;2023-03-01T09:22:15;20.02;;;10.27;;
69511;SDS011;56709;52.036;4.644;2023-03-01T09:24:41;17.42;;;9.32;;
69511;SDS011;56709;52.036;4.644;2023-03-01T09:27:06;19.00;;;9.73;;
69511;SDS011;56709;52.036;4.644;2023-03-01T09:29:34;16.65;;;8.70;;
69511;SDS011;56709;52.036;4.644;2023-03-01T09:34:26;19.80;;;8.82;;
69511;SDS011;56709;52.036;4.644;2023-03-01T09:36:52;13.80;;;8.15;;
69511;SDS011;56709;52.036;4.644;2023-03-01T09:39:17;13.90;;;8.07;;
69511;SDS011;56709;52.036;4.644;2023-03-01T09:44:24;15.50;;;7.22;;
69511;SDS011;56709;52.036;4.644;2023-03-01T09:46:52;13.18;;;7.78;;
69511;SDS011;56709;52.036;4.644;2023-03-01T09:49:19;14.60;;;7.30;;
69511;SDS011;56709;52.036;4.644;2023-03-01T09:54:23;11.68;;;7.65;;
69511;SDS011;56709;52.036;4.644;2023-03-01T09:57:06;13.35;;;6.97;;
69511;SDS011;56709;52.036;4.644;2023-03-01T09:59:44;12.13;;;7.25;;
69511;SDS011;56709;52.036;4.644;2023-03-01T10:03:06;15.40;;;7.20;;
69511;SDS011;56709;52.036;4.644;2023-03-01T10:10:43;9.45;;;6.15;;
69511;SDS011;56709;52.036;4.644;2023-03-01T10:16:26;10.60;;;6.32;;
69511;SDS011;56709;52.036;4.644;2023-03-01T10:19:04;11.85;;;6.70;;
69511;SDS011;56709;52.036;4.644;2023-03-01T10:21:31;12.52;;;7.72;;
69511;SDS011;56709;52.036;4.644;2023-03-01T10:24:08;13.38;;;7.10;;
69511;SDS011;56709;52.036;4.644;2023-03-01T10:26:44;13.93;;;7.53;;
69511;SDS011;56709;52.036;4.644;2023-03-01T10:29:14;13.20;;;8.20;;
69511;SDS011;56709;52.036;4.644;2023-03-01T10:31:43;17.48;;;8.88;;
69511;SDS011;56709;52.036;4.644;2023-03-01T10:34:17;15.02;;;8.65;;
69511;SDS011;56709;52.036;4.644;2023-03-01T10:36:55;13.60;;;8.57;;
69511;SDS011;56709;52.036;4.644;2023-03-01T10:39:23;12.30;;;8.23;;
69511;SDS011;56709;52.036;4.644;2023-03-01T10:41:54;14.13;;;8.40;;
69511;SDS011;56709;52.036;4.644;2023-03-01T10:47:22;14.80;;;8.15;;
69511;SDS011;56709;52.036;4.644;2023-03-01T10:49:54;14.10;;;8.15;;
69511;SDS011;56709;52.036;4.644;2023-03-01T10:52:27;12.60;;;7.90;;
69511;SDS011;56709;52.036;4.644;2023-03-01T10:54:58;12.90;;;7.93;;
69511;SDS011;56709;52.036;4.644;2023-03-01T10:57:47;14.50;;;8.35;;
69511;SDS011;56709;52.036;4.644;2023-03-01T11:00:19;13.07;;;8.35;;
69511;SDS011;56709;52.036;4.644;2023-03-01T11:03:01;11.63;;;8.00;;
69511;SDS011;56709;52.036;4.644;2023-03-01T11:05:34;13.13;;;8.48;;
69511;SDS011;56709;52.036;4.644;2023-03-01T11:08:00;16.15;;;8.85;;
69511;SDS011;56709;52.036;4.644;2023-03-01T11:12:53;14.10;;;8.40;;
69511;SDS011;56709;52.036;4.644;2023-03-01T11:15:20;14.85;;;7.85;;
69511;SDS011;56709;52.036;4.644;2023-03-01T11:17:48;11.15;;;6.75;;
69511;SDS011;56709;52.036;4.644;2023-03-01T11:25:36;13.50;;;7.60;;
69511;SDS011;56709;52.036;4.644;2023-03-01T11:28:04;14.68;;;8.27;;
69511;SDS011;56709;52.036;4.644;2023-03-01T11:36:04;10.88;;;7.45;;
69511;SDS011;56709;52.036;4.644;2023-03-01T11:38:34;14.57;;;8.25;;
69511;SDS011;56709;52.036;4.644;2023-03-01T11:43:52;10.55;;;7.43;;
69511;SDS011;56709;52.036;4.644;2023-03-01T11:51:57;11.55;;;6.80;;
69511;SDS011;56709;52.036;4.644;2023-03-01T11:57:20;11.32;;;6.10;;
69511;SDS011;56709;52.036;4.644;2023-03-01T12:08:56;8.93;;;5.82;;
69511;SDS011;56709;52.036;4.644;2023-03-01T12:17:10;9.95;;;5.57;;
69511;SDS011;56709;52.036;4.644;2023-03-01T12:33:17;13.73;;;6.97;;
69511;SDS011;56709;52.036;4.644;2023-03-01T12:36:03;12.23;;;7.13;;
69511;SDS011;56709;52.036;4.644;2023-03-01T12:41:42;12.98;;;7.40;;
69511;SDS011;56709;52.036;4.644;2023-03-01T12:49:54;10.43;;;5.68;;
69511;SDS011;56709;52.036;4.644;2023-03-01T12:52:24;9.50;;;5.60;;
69511;SDS011;56709;52.036;4.644;2023-03-01T12:54:58;9.68;;;5.47;;
69511;SDS011;56709;52.036;4.644;2023-03-01T12:57:30;8.48;;;5.28;;
69511;SDS011;56709;52.036;4.644;2023-03-01T13:02:54;7.93;;;4.88;;
69511;SDS011;56709;52.036;4.644;2023-03-01T13:08:39;6.03;;;3.97;;
69511;SDS011;56709;52.036;4.644;2023-03-01T13:11:40;11.65;;;4.80;;
69511;SDS011;56709;52.036;4.644;2023-03-01T13:16:50;7.13;;;4.65;;
69511;SDS011;56709;52.036;4.644;2023-03-01T13:19:27;6.78;;;4.43;;
69511;SDS011;56709;52.036;4.644;2023-03-01T13:22:01;9.80;;;4.47;;
69511;SDS011;56709;52.036;4.644;2023-03-01T13:25:12;6.43;;;4.32;;
69511;SDS011;56709;52.036;4.644;2023-03-01T13:27:38;8.20;;;4.57;;
69511;SDS011;56709;52.036;4.644;2023-03-01T13:30:04;9.98;;;4.90;;
69511;SDS011;56709;52.036;4.644;2023-03-01T13:32:34;8.00;;;4.47;;
69511;SDS011;56709;52.036;4.644;2023-03-01T13:37:36;7.10;;;4.88;;
69511;SDS011;56709;52.036;4.644;2023-03-01T13:40:04;6.90;;;4.32;;
69511;SDS011;56709;52.036;4.644;2023-03-01T13:42:51;9.20;;;4.93;;
69511;SDS011;56709;52.036;4.644;2023-03-01T13:47:49;6.78;;;4.65;;
69511;SDS011;56709;52.036;4.644;2023-03-01T13:50:27;8.73;;;5.13;;
69511;SDS011;56709;52.036;4.644;2023-03-01T13:55:21;7.47;;;4.78;;
69511;SDS011;56709;52.036;4.644;2023-03-01T13:57:54;7.70;;;4.72;;
69511;SDS011;56709;52.036;4.644;2023-03-01T14:00:29;7.40;;;4.47;;
69511;SDS011;56709;52.036;4.644;2023-03-01T14:03:02;6.80;;;4.70;;
69511;SDS011;56709;52.036;4.644;2023-03-01T14:05:29;7.05;;;4.53;;
69511;SDS011;56709;52.036;4.644;2023-03-01T14:07:55;10.50;;;5.70;;
69511;SDS011;56709;52.036;4.644;2023-03-01T14:10:20;11.48;;;5.05;;
69511;SDS011;56709;52.036;4.644;2023-03-01T14:15:32;7.53;;;4.60;;
69511;SDS011;56709;52.036;4.644;2023-03-01T14:18:04;8.27;;;5.00;;
69511;SDS011;56709;52.036;4.644;2023-03-01T14:20:45;8.93;;;4.90;;
69511;SDS011;56709;52.036;4.644;2023-03-01T14:23:18;8.38;;;4.75;;
69511;SDS011;56709;52.036;4.644;2023-03-01T14:25:46;6.95;;;4.80;;
69511;SDS011;56709;52.036;4.644;2023-03-01T14:28:49;10.93;;;4.50;;
69511;SDS011;56709;52.036;4.644;2023-03-01T14:34:01;7.07;;;4.35;;
69511;SDS011;56709;52.036;4.644;2023-03-01T14:36:27;6.55;;;4.95;;
69511;SDS011;56709;52.036;4.644;2023-03-01T14:38:57;5.95;;;4.20;;
69511;SDS011;56709;52.036;4.644;2023-03-01T14:41:30;7.85;;;4.60;;
69511;SDS011;56709;52.036;4.644;2023-03-01T14:44:00;6.75;;;4.22;;
69511;SDS011;56709;52.036;4.644;2023-03-01T14:46:35;6.50;;;4.07;;
69511;SDS011;56709;52.036;4.644;2023-03-01T14:49:03;6.95;;;4.43;;
69511;SDS011;56709;52.036;4.644;2023-03-01T14:51:30;6.57;;;4.38;;
69511;SDS011;56709;52.036;4.644;2023-03-01T14:54:00;6.22;;;3.97;;
69511;SDS011;56709;52.036;4.644;2023-03-01T14:56:26;8.35;;;4.10;;
69511;SDS011;56709;52.036;4.644;2023-03-01T14:58:52;8.35;;;4.63;;
69511;SDS011;56709;52.036;4.644;2023-03-01T15:01:24;8.07;;;4.22;;
69511;SDS011;56709;52.036;4.644;2023-03-01T15:03:49;7.10;;;4.18;;
69511;SDS011;56709;52.036;4.644;2023-03-01T15:06:17;6.95;;;4.47;;
69511;SDS011;56709;52.036;4.644;2023-03-01T15:08:48;6.63;;;3.70;;
69511;SDS011;56709;52.036;4.644;2023-03-01T15:13:40;6.57;;;4.30;;
69511;SDS011;56709;52.036;4.644;2023-03-01T15:16:10;7.03;;;4.38;;
69511;SDS011;56709;52.036;4.644;2023-03-01T15:18:37;9.23;;;4.10;;
69511;SDS011;56709;52.036;4.644;2023-03-01T15:21:18;6.32;;;3.97;;
69511;SDS011;56709;52.036;4.644;2023-03-01T15:23:52;9.45;;;4.28;;
69511;SDS011;56709;52.036;4.644;2023-03-01T15:26:23;8.90;;;4.50;;
69511;SDS011;56709;52.036;4.644;2023-03-01T15:28:51;8.82;;;4.90;;
69511;SDS011;56709;52.036;4.644;2023-03-01T15:33:50;8.57;;;4.50;;
69511;SDS011;56709;52.036;4.644;2023-03-01T15:39:01;7.18;;;4.22;;
69511;SDS011;56709;52.036;4.644;2023-03-01T15:41:27;11.52;;;5.07;;
69511;SDS011;56709;52.036;4.644;2023-03-01T15:43:58;11.02;;;6.05;;
69511;SDS011;56709;52.036;4.644;2023-03-01T15:46:32;7.65;;;4.20;;
69511;SDS011;56709;52.036;4.644;2023-03-01T15:49:00;8.40;;;4.90;;
69511;SDS011;56709;52.036;4.644;2023-03-01T15:51:29;7.60;;;4.50;;
69511;SDS011;56709;52.036;4.644;2023-03-01T15:53:57;10.38;;;5.53;;
69511;SDS011;56709;52.036;4.644;2023-03-01T15:58:49;10.13;;;5.30;;
69511;SDS011;56709;52.036;4.644;2023-03-01T16:01:15;10.25;;;5.07;;
69511;SDS011;56709;52.036;4.644;2023-03-01T16:03:44;9.23;;;4.93;;
69511;SDS011;56709;52.036;4.644;2023-03-01T16:06:10;8.93;;;5.15;;
69511;SDS011;56709;52.036;4.644;2023-03-01T16:08:36;11.13;;;5.18;;
69511;SDS011;56709;52.036;4.644;2023-03-01T16:11:02;8.55;;;4.63;;
69511;SDS011;56709;52.036;4.644;2023-03-01T16:13:30;9.63;;;5.10;;
69511;SDS011;56709;52.036;4.644;2023-03-01T16:15:56;13.73;;;5.45;;
69511;SDS011;56709;52.036;4.644;2023-03-01T16:18:22;7.00;;;4.28;;
69511;SDS011;56709;52.036;4.644;2023-03-01T16:20:47;8.63;;;4.57;;
69511;SDS011;56709;52.036;4.644;2023-03-01T16:23:14;16.85;;;5.80;;
69511;SDS011;56709;52.036;4.644;2023-03-01T16:25:39;8.40;;;5.10;;
69511;SDS011;56709;52.036;4.644;2023-03-01T16:28:05;9.40;;;5.47;;
69511;SDS011;56709;52.036;4.644;2023-03-01T16:30:33;10.05;;;5.07;;
69511;SDS011;56709;52.036;4.644;2023-03-01T16:33:00;11.73;;;5.55;;
69511;SDS011;56709;52.036;4.644;2023-03-01T16:35:25;12.90;;;5.65;;
69511;SDS011;56709;52.036;4.644;2023-03-01T16:37:51;11.95;;;5.10;;
69511;SDS011;56709;52.036;4.644;2023-03-01T16:40:22;10.65;;;5.68;;
69511;SDS011;56709;52.036;4.644;2023-03-01T16:42:52;10.10;;;5.82;;
69511;SDS011;56709;52.036;4.644;2023-03-01T16:45:18;11.63;;;5.40;;